sensor_id;sensor_type;location;lat;lon;timestamp;P1;durP1;ratioP1;P2;durP2;ratioP2
46282;SDS011;32017;43.700;11.820;2023-02-03T00:00:04;34.50;;;28.23;;
46282;SDS011;32017;43.700;11.820;2023-02-03T00:02:24;28.88;;;25.85;;
46282;SDS011;32017;43.700;11.820;2023-02-03T00:04:45;34.80;;;28.80;;
46282;SDS011;32017;43.700;11.820;2023-02-03T00:07:05;39.95;;;34.85;;
46282;SDS011;32017;43.700;11.820;2023-02-03T00:09:25;47.33;;;43.05;;
46282;SDS011;32017;43.700;11.820;2023-02-03T00:11:45;53.00;;;48.60;;
46282;SDS011;32017;43.700;11.820;2023-02-03T00:14:06;55.80;;;50.50;;
46282;SDS011;32017;43.700;11.820;2023-02-03T00:16:26;53.42;;;49.35;;
46282;SDS011;32017;43.700;11.820;2023-02-03T00:18:46;50.05;;;46.42;;
46282;SDS011;32017;43.700;11.820;2023-02-03T00:21:07;49.33;;;44.92;;
46282;SDS011;32017;43.700;11.820;2023-02-03T00:23:27;51.10;;;46.53;;
46282;SDS011;32017;43.700;11.820;2023-02-03T00:25:50;47.20;;;43.55;;
46282;SDS011;32017;43.700;11.820;2023-02-03T00:28:10;50.15;;;45.67;;
46282;SDS011;32017;43.700;11.820;2023-02-03T00:30:32;48.40;;;44.22;;
46282;SDS011;32017;43.700;11.820;2023-02-03T00:32:52;45.70;;;42.00;;
46282;SDS011;32017;43.700;11.820;2023-02-03T00:35:13;42.10;;;37.70;;
46282;SDS011;32017;43.700;11.820;2023-02-03T00:37:33;45.42;;;40.90;;
46282;SDS011;32017;43.700;11.820;2023-02-03T00:39:53;45.60;;;41.20;;
46282;SDS011;32017;43.700;11.820;2023-02-03T00:42:13;36.17;;;32.58;;
46282;SDS011;32017;43.700;11.820;2023-02-03T00:44:33;35.65;;;31.98;;
46282;SDS011;32017;43.700;11.820;2023-02-03T00:46:54;39.78;;;31.95;;
46282;SDS011;32017;43.700;11.820;2023-02-03T00:49:14;33.72;;;29.88;;
46282;SDS011;32017;43.700;11.820;2023-02-03T00:51:34;34.15;;;28.40;;
46282;SDS011;32017;43.700;11.820;2023-02-03T00:53:54;29.67;;;26.45;;
46282;SDS011;32017;43.700;11.820;2023-02-03T00:56:15;38.15;;;31.30;;
46282;SDS011;32017;43.700;11.820;2023-02-03T00:58:35;31.63;;;28.42;;
46282;SDS011;32017;43.700;11.820;2023-02-03T01:00:55;30.48;;;27.17;;
46282;SDS011;32017;43.700;11.820;2023-02-03T01:03:16;29.35;;;26.35;;
46282;SDS011;32017;43.700;11.820;2023-02-03T01:05:37;29.42;;;26.42;;
46282;SDS011;32017;43.700;11.820;2023-02-03T01:07:57;28.55;;;24.73;;
46282;SDS011;32017;43.700;11.820;2023-02-03T01:10:19;26.80;;;24.65;;
46282;SDS011;32017;43.700;11.820;2023-02-03T01:12:39;26.45;;;23.80;;
46282;SDS011;32017;43.700;11.820;2023-02-03T01:14:59;26.48;;;23.85;;
46282;SDS011;32017;43.700;11.820;2023-02-03T01:17:20;29.60;;;26.45;;
46282;SDS011;32017;43.700;11.820;2023-02-03T01:19:40;27.08;;;24.52;;
46282;SDS011;32017;43.700;11.820;2023-02-03T01:22:00;28.33;;;25.60;;
46282;SDS011;32017;43.700;11.820;2023-02-03T01:24:20;29.92;;;26.75;;
46282;SDS011;32017;43.700;11.820;2023-02-03T01:26:41;37.38;;;33.28;;
46282;SDS011;32017;43.700;11.820;2023-02-03T01:29:01;43.72;;;39.60;;
46282;SDS011;32017;43.700;11.820;2023-02-03T01:31:23;44.72;;;40.05;;
46282;SDS011;32017;43.700;11.820;2023-02-03T01:33:44;40.75;;;37.17;;
46282;SDS011;32017;43.700;11.820;2023-02-03T01:36:07;44.28;;;39.85;;
46282;SDS011;32017;43.700;11.820;2023-02-03T01:38:28;47.97;;;43.75;;
46282;SDS011;32017;43.700;11.820;2023-02-03T01:40:48;42.25;;;38.42;;
46282;SDS011;32017;43.700;11.820;2023-02-03T01:43:09;43.67;;;39.53;;
46282;SDS011;32017;43.700;11.820;2023-02-03T01:45:30;44.95;;;41.67;;
46282;SDS011;32017;43.700;11.820;2023-02-03T01:47:54;46.58;;;42.88;;
46282;SDS011;32017;43.700;11.820;2023-02-03T01:50:17;45.63;;;41.75;;
46282;SDS011;32017;43.700;11.820;2023-02-03T01:52:39;50.85;;;46.28;;
46282;SDS011;32017;43.700;11.820;2023-02-03T01:55:01;41.80;;;38.20;;
46282;SDS011;32017;43.700;11.820;2023-02-03T01:57:23;41.08;;;37.30;;
46282;SDS011;32017;43.700;11.820;2023-02-03T02:02:05;44.63;;;40.65;;
46282;SDS011;32017;43.700;11.820;2023-02-03T02:04:28;45.47;;;41.67;;
46282;SDS011;32017;43.700;11.820;2023-02-03T02:06:51;49.88;;;45.63;;
46282;SDS011;32017;43.700;11.820;2023-02-03T02:09:11;46.08;;;42.47;;
46282;SDS011;32017;43.700;11.820;2023-02-03T02:11:32;48.88;;;45.08;;
46282;SDS011;32017;43.700;11.820;2023-02-03T02:13:55;48.92;;;45.50;;
46282;SDS011;32017;43.700;11.820;2023-02-03T02:17:00;52.90;;;48.95;;
46282;SDS011;32017;43.700;11.820;2023-02-03T02:21:41;46.42;;;42.65;;
46282;SDS011;32017;43.700;11.820;2023-02-03T02:32:10;54.30;;;49.58;;
46282;SDS011;32017;43.700;11.820;2023-02-03T02:39:36;43.47;;;40.08;;
46282;SDS011;32017;43.700;11.820;2023-02-03T02:42:00;46.88;;;43.20;;
46282;SDS011;32017;43.700;11.820;2023-02-03T02:44:22;45.20;;;42.15;;
46282;SDS011;32017;43.700;11.820;2023-02-03T02:46:47;44.15;;;40.67;;
46282;SDS011;32017;43.700;11.820;2023-02-03T02:49:09;43.95;;;40.13;;
46282;SDS011;32017;43.700;11.820;2023-02-03T02:51:32;43.28;;;40.08;;
46282;SDS011;32017;43.700;11.820;2023-02-03T02:53:59;40.25;;;37.08;;
46282;SDS011;32017;43.700;11.820;2023-02-03T02:56:21;37.63;;;34.72;;
46282;SDS011;32017;43.700;11.820;2023-02-03T02:58:43;39.05;;;35.67;;
46282;SDS011;32017;43.700;11.820;2023-02-03T03:01:06;43.28;;;39.35;;
46282;SDS011;32017;43.700;11.820;2023-02-03T03:03:26;48.33;;;43.70;;
46282;SDS011;32017;43.700;11.820;2023-02-03T03:08:16;48.00;;;44.28;;
46282;SDS011;32017;43.700;11.820;2023-02-03T03:10:39;50.22;;;46.33;;
46282;SDS011;32017;43.700;11.820;2023-02-03T03:13:04;50.00;;;45.85;;
46282;SDS011;32017;43.700;11.820;2023-02-03T03:15:26;49.83;;;45.78;;
46282;SDS011;32017;43.700;11.820;2023-02-03T03:17:49;54.60;;;49.80;;
46282;SDS011;32017;43.700;11.820;2023-02-03T03:20:12;54.17;;;49.72;;
46282;SDS011;32017;43.700;11.820;2023-02-03T03:24:57;53.15;;;48.65;;
46282;SDS011;32017;43.700;11.820;2023-02-03T03:27:23;56.13;;;50.90;;
46282;SDS011;32017;43.700;11.820;2023-02-03T03:29:54;54.75;;;50.13;;
46282;SDS011;32017;43.700;11.820;2023-02-03T03:32:15;55.80;;;50.55;;
46282;SDS011;32017;43.700;11.820;2023-02-03T03:34:36;52.70;;;48.38;;
46282;SDS011;32017;43.700;11.820;2023-02-03T03:36:58;48.47;;;44.78;;
46282;SDS011;32017;43.700;11.820;2023-02-03T03:41:41;49.42;;;45.17;;
46282;SDS011;32017;43.700;11.820;2023-02-03T03:44:03;53.03;;;48.55;;
46282;SDS011;32017;43.700;11.820;2023-02-03T03:46:29;54.97;;;50.88;;
46282;SDS011;32017;43.700;11.820;2023-02-03T03:49:01;57.75;;;53.13;;
46282;SDS011;32017;43.700;11.820;2023-02-03T03:51:24;56.03;;;51.58;;
46282;SDS011;32017;43.700;11.820;2023-02-03T03:53:48;53.70;;;50.00;;
46282;SDS011;32017;43.700;11.820;2023-02-03T03:56:10;50.85;;;46.97;;
46282;SDS011;32017;43.700;11.820;2023-02-03T03:58:32;56.28;;;52.40;;
46282;SDS011;32017;43.700;11.820;2023-02-03T04:00:55;48.28;;;44.97;;
46282;SDS011;32017;43.700;11.820;2023-02-03T04:03:17;50.40;;;47.08;;
46282;SDS011;32017;43.700;11.820;2023-02-03T04:05:40;52.00;;;48.67;;
46282;SDS011;32017;43.700;11.820;2023-02-03T04:08:00;52.97;;;48.92;;
46282;SDS011;32017;43.700;11.820;2023-02-03T04:12:45;49.53;;;45.50;;
46282;SDS011;32017;43.700;11.820;2023-02-03T04:15:05;44.72;;;41.17;;
46282;SDS011;32017;43.700;11.820;2023-02-03T04:17:25;47.65;;;43.75;;
46282;SDS011;32017;43.700;11.820;2023-02-03T04:19:46;55.17;;;50.67;;
46282;SDS011;32017;43.700;11.820;2023-02-03T04:22:06;55.85;;;51.67;;
46282;SDS011;32017;43.700;11.820;2023-02-03T04:24:26;51.67;;;47.70;;
46282;SDS011;32017;43.700;11.820;2023-02-03T04:26:46;56.08;;;52.15;;
46282;SDS011;32017;43.700;11.820;2023-02-03T04:29:07;54.40;;;49.92;;
46282;SDS011;32017;43.700;11.820;2023-02-03T04:31:27;57.97;;;53.67;;
46282;SDS011;32017;43.700;11.820;2023-02-03T04:33:47;58.95;;;54.67;;
46282;SDS011;32017;43.700;11.820;2023-02-03T04:36:08;54.10;;;50.65;;
46282;SDS011;32017;43.700;11.820;2023-02-03T04:38:28;57.17;;;53.53;;
46282;SDS011;32017;43.700;11.820;2023-02-03T04:40:48;55.50;;;51.42;;
46282;SDS011;32017;43.700;11.820;2023-02-03T04:43:09;52.88;;;49.42;;
46282;SDS011;32017;43.700;11.820;2023-02-03T04:45:29;52.47;;;48.72;;
46282;SDS011;32017;43.700;11.820;2023-02-03T04:47:50;53.80;;;50.15;;
46282;SDS011;32017;43.700;11.820;2023-02-03T04:50:13;59.33;;;54.75;;
46282;SDS011;32017;43.700;11.820;2023-02-03T04:52:33;59.35;;;55.40;;
46282;SDS011;32017;43.700;11.820;2023-02-03T04:54:53;56.80;;;52.40;;
46282;SDS011;32017;43.700;11.820;2023-02-03T04:57:13;56.92;;;52.38;;
46282;SDS011;32017;43.700;11.820;2023-02-03T04:59:34;60.88;;;56.17;;
46282;SDS011;32017;43.700;11.820;2023-02-03T05:01:54;58.78;;;54.47;;
46282;SDS011;32017;43.700;11.820;2023-02-03T05:04:14;54.17;;;50.08;;
46282;SDS011;32017;43.700;11.820;2023-02-03T05:06:34;53.88;;;48.50;;
46282;SDS011;32017;43.700;11.820;2023-02-03T05:08:55;51.08;;;46.78;;
46282;SDS011;32017;43.700;11.820;2023-02-03T05:11:15;53.10;;;49.08;;
46282;SDS011;32017;43.700;11.820;2023-02-03T05:13:35;53.50;;;49.47;;
46282;SDS011;32017;43.700;11.820;2023-02-03T05:15:56;53.88;;;49.63;;
46282;SDS011;32017;43.700;11.820;2023-02-03T05:18:16;53.47;;;49.58;;
46282;SDS011;32017;43.700;11.820;2023-02-03T05:20:36;54.08;;;50.25;;
46282;SDS011;32017;43.700;11.820;2023-02-03T05:22:57;58.58;;;54.80;;
46282;SDS011;32017;43.700;11.820;2023-02-03T05:25:17;60.28;;;56.08;;
46282;SDS011;32017;43.700;11.820;2023-02-03T05:27:38;60.25;;;55.92;;
46282;SDS011;32017;43.700;11.820;2023-02-03T05:29:58;59.00;;;55.10;;
46282;SDS011;32017;43.700;11.820;2023-02-03T05:32:18;56.50;;;52.10;;
46282;SDS011;32017;43.700;11.820;2023-02-03T05:34:39;59.40;;;54.95;;
46282;SDS011;32017;43.700;11.820;2023-02-03T05:37:01;57.80;;;53.13;;
46282;SDS011;32017;43.700;11.820;2023-02-03T05:39:22;52.05;;;47.70;;
46282;SDS011;32017;43.700;11.820;2023-02-03T05:41:42;53.33;;;49.38;;
46282;SDS011;32017;43.700;11.820;2023-02-03T05:44:11;52.50;;;48.92;;
46282;SDS011;32017;43.700;11.820;2023-02-03T05:46:31;55.35;;;50.95;;
46282;SDS011;32017;43.700;11.820;2023-02-03T05:48:51;55.17;;;51.45;;
46282;SDS011;32017;43.700;11.820;2023-02-03T05:51:12;56.53;;;51.42;;
46282;SDS011;32017;43.700;11.820;2023-02-03T05:53:32;63.22;;;58.03;;
46282;SDS011;32017;43.700;11.820;2023-02-03T05:55:53;57.83;;;53.38;;
46282;SDS011;32017;43.700;11.820;2023-02-03T05:58:13;55.17;;;50.75;;
46282;SDS011;32017;43.700;11.820;2023-02-03T06:00:34;62.55;;;57.67;;
46282;SDS011;32017;43.700;11.820;2023-02-03T06:02:54;74.07;;;53.88;;
46282;SDS011;32017;43.700;11.820;2023-02-03T06:05:15;60.30;;;54.05;;
46282;SDS011;32017;43.700;11.820;2023-02-03T06:07:35;63.58;;;57.65;;
46282;SDS011;32017;43.700;11.820;2023-02-03T06:09:55;63.05;;;57.92;;
46282;SDS011;32017;43.700;11.820;2023-02-03T06:12:15;101.85;;;58.10;;
46282;SDS011;32017;43.700;11.820;2023-02-03T06:14:35;52.63;;;48.47;;
46282;SDS011;32017;43.700;11.820;2023-02-03T06:16:56;57.13;;;52.50;;
46282;SDS011;32017;43.700;11.820;2023-02-03T06:19:16;59.83;;;55.20;;
46282;SDS011;32017;43.700;11.820;2023-02-03T06:21:36;57.58;;;53.72;;
46282;SDS011;32017;43.700;11.820;2023-02-03T06:23:56;59.58;;;54.55;;
46282;SDS011;32017;43.700;11.820;2023-02-03T06:26:16;62.42;;;57.10;;
46282;SDS011;32017;43.700;11.820;2023-02-03T06:28:36;66.55;;;60.65;;
46282;SDS011;32017;43.700;11.820;2023-02-03T06:30:56;71.55;;;64.47;;
46282;SDS011;32017;43.700;11.820;2023-02-03T06:33:18;66.30;;;60.70;;
46282;SDS011;32017;43.700;11.820;2023-02-03T06:35:38;69.90;;;64.10;;
46282;SDS011;32017;43.700;11.820;2023-02-03T06:37:59;72.45;;;65.53;;
46282;SDS011;32017;43.700;11.820;2023-02-03T06:40:19;65.85;;;59.70;;
46282;SDS011;32017;43.700;11.820;2023-02-03T06:42:39;58.13;;;53.58;;
46282;SDS011;32017;43.700;11.820;2023-02-03T06:44:59;56.33;;;52.40;;
46282;SDS011;32017;43.700;11.820;2023-02-03T06:47:20;52.55;;;49.08;;
46282;SDS011;32017;43.700;11.820;2023-02-03T06:49:40;53.90;;;50.75;;
46282;SDS011;32017;43.700;11.820;2023-02-03T06:52:01;49.75;;;45.95;;
46282;SDS011;32017;43.700;11.820;2023-02-03T06:54:21;53.28;;;49.60;;
46282;SDS011;32017;43.700;11.820;2023-02-03T06:56:41;52.35;;;48.95;;
46282;SDS011;32017;43.700;11.820;2023-02-03T06:59:01;53.22;;;49.08;;
46282;SDS011;32017;43.700;11.820;2023-02-03T07:01:22;59.05;;;54.58;;
46282;SDS011;32017;43.700;11.820;2023-02-03T07:03:44;64.63;;;58.95;;
46282;SDS011;32017;43.700;11.820;2023-02-03T07:06:05;63.33;;;57.97;;
46282;SDS011;32017;43.700;11.820;2023-02-03T07:08:26;67.57;;;61.22;;
46282;SDS011;32017;43.700;11.820;2023-02-03T07:10:46;67.13;;;61.65;;
46282;SDS011;32017;43.700;11.820;2023-02-03T07:13:07;59.15;;;54.63;;
46282;SDS011;32017;43.700;11.820;2023-02-03T07:15:27;60.20;;;55.70;;
46282;SDS011;32017;43.700;11.820;2023-02-03T07:17:48;59.58;;;54.88;;
46282;SDS011;32017;43.700;11.820;2023-02-03T07:20:12;65.68;;;60.33;;
46282;SDS011;32017;43.700;11.820;2023-02-03T07:22:32;62.28;;;56.95;;
46282;SDS011;32017;43.700;11.820;2023-02-03T07:24:54;57.85;;;53.80;;
46282;SDS011;32017;43.700;11.820;2023-02-03T07:27:14;68.45;;;62.15;;
46282;SDS011;32017;43.700;11.820;2023-02-03T07:29:34;67.78;;;62.53;;
46282;SDS011;32017;43.700;11.820;2023-02-03T07:31:54;67.50;;;62.15;;
46282;SDS011;32017;43.700;11.820;2023-02-03T07:34:15;64.97;;;60.00;;
46282;SDS011;32017;43.700;11.820;2023-02-03T07:36:35;57.13;;;53.00;;
46282;SDS011;32017;43.700;11.820;2023-02-03T07:38:55;49.45;;;46.65;;
46282;SDS011;32017;43.700;11.820;2023-02-03T07:41:15;47.38;;;44.92;;
46282;SDS011;32017;43.700;11.820;2023-02-03T07:43:37;61.17;;;56.38;;
46282;SDS011;32017;43.700;11.820;2023-02-03T07:45:57;50.45;;;46.80;;
46282;SDS011;32017;43.700;11.820;2023-02-03T07:48:18;68.93;;;63.47;;
46282;SDS011;32017;43.700;11.820;2023-02-03T07:50:39;62.50;;;57.08;;
46282;SDS011;32017;43.700;11.820;2023-02-03T07:52:59;60.95;;;56.00;;
46282;SDS011;32017;43.700;11.820;2023-02-03T07:55:20;76.55;;;68.93;;
46282;SDS011;32017;43.700;11.820;2023-02-03T07:57:41;69.30;;;63.08;;
46282;SDS011;32017;43.700;11.820;2023-02-03T08:00:03;80.97;;;72.38;;
46282;SDS011;32017;43.700;11.820;2023-02-03T08:02:23;72.32;;;65.88;;
46282;SDS011;32017;43.700;11.820;2023-02-03T08:04:44;58.30;;;53.58;;
46282;SDS011;32017;43.700;11.820;2023-02-03T08:07:04;63.50;;;56.88;;
46282;SDS011;32017;43.700;11.820;2023-02-03T08:09:24;66.95;;;60.75;;
46282;SDS011;32017;43.700;11.820;2023-02-03T08:11:45;60.58;;;55.30;;
46282;SDS011;32017;43.700;11.820;2023-02-03T08:14:05;57.58;;;53.35;;
46282;SDS011;32017;43.700;11.820;2023-02-03T08:16:25;44.40;;;41.95;;
46282;SDS011;32017;43.700;11.820;2023-02-03T08:18:45;45.47;;;42.50;;
46282;SDS011;32017;43.700;11.820;2023-02-03T08:21:06;42.50;;;39.95;;
46282;SDS011;32017;43.700;11.820;2023-02-03T08:23:26;31.98;;;30.08;;
46282;SDS011;32017;43.700;11.820;2023-02-03T08:25:50;44.65;;;40.85;;
46282;SDS011;32017;43.700;11.820;2023-02-03T08:28:10;53.90;;;48.15;;
46282;SDS011;32017;43.700;11.820;2023-02-03T08:30:31;55.58;;;46.25;;
46282;SDS011;32017;43.700;11.820;2023-02-03T08:32:51;64.70;;;57.60;;
46282;SDS011;32017;43.700;11.820;2023-02-03T08:35:11;65.20;;;58.80;;
46282;SDS011;32017;43.700;11.820;2023-02-03T08:37:31;61.53;;;55.28;;
46282;SDS011;32017;43.700;11.820;2023-02-03T08:39:52;62.78;;;56.78;;
46282;SDS011;32017;43.700;11.820;2023-02-03T08:42:12;66.15;;;59.60;;
46282;SDS011;32017;43.700;11.820;2023-02-03T08:44:33;58.75;;;54.28;;
46282;SDS011;32017;43.700;11.820;2023-02-03T08:46:53;56.28;;;51.83;;
46282;SDS011;32017;43.700;11.820;2023-02-03T08:49:13;56.55;;;52.55;;
46282;SDS011;32017;43.700;11.820;2023-02-03T08:51:33;54.53;;;50.58;;
46282;SDS011;32017;43.700;11.820;2023-02-03T08:53:53;55.95;;;51.58;;
46282;SDS011;32017;43.700;11.820;2023-02-03T08:56:14;57.63;;;53.17;;
46282;SDS011;32017;43.700;11.820;2023-02-03T08:58:34;46.63;;;44.00;;
46282;SDS011;32017;43.700;11.820;2023-02-03T09:00:54;50.50;;;47.15;;
46282;SDS011;32017;43.700;11.820;2023-02-03T09:03:14;52.63;;;48.95;;
46282;SDS011;32017;43.700;11.820;2023-02-03T09:05:35;53.03;;;49.03;;
46282;SDS011;32017;43.700;11.820;2023-02-03T09:07:55;49.85;;;46.30;;
46282;SDS011;32017;43.700;11.820;2023-02-03T09:10:15;43.85;;;40.40;;
46282;SDS011;32017;43.700;11.820;2023-02-03T09:12:35;44.90;;;35.53;;
46282;SDS011;32017;43.700;11.820;2023-02-03T09:14:56;37.55;;;32.38;;
46282;SDS011;32017;43.700;11.820;2023-02-03T09:17:16;23.95;;;22.17;;
46282;SDS011;32017;43.700;11.820;2023-02-03T09:19:36;25.65;;;23.25;;
46282;SDS011;32017;43.700;11.820;2023-02-03T09:21:56;21.50;;;19.88;;
46282;SDS011;32017;43.700;11.820;2023-02-03T09:24:17;24.45;;;22.15;;
46282;SDS011;32017;43.700;11.820;2023-02-03T09:26:37;22.65;;;20.50;;
46282;SDS011;32017;43.700;11.820;2023-02-03T09:28:57;18.05;;;16.60;;
46282;SDS011;32017;43.700;11.820;2023-02-03T09:31:18;17.60;;;16.30;;
46282;SDS011;32017;43.700;11.820;2023-02-03T09:33:39;17.85;;;16.50;;
46282;SDS011;32017;43.700;11.820;2023-02-03T09:35:59;12.60;;;12.02;;
46282;SDS011;32017;43.700;11.820;2023-02-03T09:38:20;16.40;;;15.10;;
46282;SDS011;32017;43.700;11.820;2023-02-03T09:40:40;12.68;;;11.98;;
46282;SDS011;32017;43.700;11.820;2023-02-03T09:43:07;15.07;;;14.27;;
46282;SDS011;32017;43.700;11.820;2023-02-03T09:45:31;14.70;;;13.43;;
46282;SDS011;32017;43.700;11.820;2023-02-03T09:47:51;14.27;;;12.18;;
46282;SDS011;32017;43.700;11.820;2023-02-03T09:50:13;10.57;;;9.75;;
46282;SDS011;32017;43.700;11.820;2023-02-03T09:52:38;13.88;;;12.93;;
46282;SDS011;32017;43.700;11.820;2023-02-03T09:57:43;13.95;;;13.25;;
46282;SDS011;32017;43.700;11.820;2023-02-03T10:00:13;11.98;;;11.35;;
46282;SDS011;32017;43.700;11.820;2023-02-03T10:02:42;14.40;;;13.45;;
46282;SDS011;32017;43.700;11.820;2023-02-03T10:07:40;18.02;;;16.35;;
46282;SDS011;32017;43.700;11.820;2023-02-03T10:10:06;22.30;;;19.33;;
46282;SDS011;32017;43.700;11.820;2023-02-03T10:14:57;15.32;;;14.30;;
46282;SDS011;32017;43.700;11.820;2023-02-03T10:17:38;14.82;;;13.50;;
46282;SDS011;32017;43.700;11.820;2023-02-03T10:20:01;20.08;;;18.23;;
46282;SDS011;32017;43.700;11.820;2023-02-03T10:22:23;22.25;;;20.05;;
46282;SDS011;32017;43.700;11.820;2023-02-03T10:24:49;24.90;;;20.48;;
46282;SDS011;32017;43.700;11.820;2023-02-03T10:29:31;37.38;;;30.65;;
46282;SDS011;32017;43.700;11.820;2023-02-03T10:34:17;23.10;;;18.60;;
46282;SDS011;32017;43.700;11.820;2023-02-03T10:41:21;21.27;;;19.33;;
46282;SDS011;32017;43.700;11.820;2023-02-03T10:43:42;18.15;;;16.75;;
46282;SDS011;32017;43.700;11.820;2023-02-03T10:46:05;18.55;;;16.88;;
46282;SDS011;32017;43.700;11.820;2023-02-03T10:48:26;20.85;;;18.83;;
46282;SDS011;32017;43.700;11.820;2023-02-03T10:50:47;18.45;;;16.92;;
46282;SDS011;32017;43.700;11.820;2023-02-03T10:55:37;17.85;;;16.40;;
46282;SDS011;32017;43.700;11.820;2023-02-03T10:57:57;12.32;;;11.30;;
46282;SDS011;32017;43.700;11.820;2023-02-03T11:00:31;12.23;;;11.30;;
46282;SDS011;32017;43.700;11.820;2023-02-03T11:03:07;13.30;;;12.38;;
46282;SDS011;32017;43.700;11.820;2023-02-03T11:05:35;11.57;;;10.60;;
46282;SDS011;32017;43.700;11.820;2023-02-03T11:07:56;14.05;;;12.98;;
46282;SDS011;32017;43.700;11.820;2023-02-03T11:12:45;11.95;;;10.82;;
46282;SDS011;32017;43.700;11.820;2023-02-03T11:15:06;10.27;;;9.48;;
46282;SDS011;32017;43.700;11.820;2023-02-03T11:17:26;10.55;;;9.85;;
46282;SDS011;32017;43.700;11.820;2023-02-03T11:19:52;10.40;;;9.75;;
46282;SDS011;32017;43.700;11.820;2023-02-03T11:25:02;11.32;;;10.32;;
46282;SDS011;32017;43.700;11.820;2023-02-03T11:27:23;10.23;;;9.30;;
46282;SDS011;32017;43.700;11.820;2023-02-03T11:29:46;10.13;;;9.18;;
46282;SDS011;32017;43.700;11.820;2023-02-03T11:34:34;16.05;;;11.93;;
46282;SDS011;32017;43.700;11.820;2023-02-03T11:39:39;10.45;;;9.60;;
46282;SDS011;32017;43.700;11.820;2023-02-03T11:42:00;10.25;;;9.40;;
46282;SDS011;32017;43.700;11.820;2023-02-03T11:44:23;10.40;;;9.60;;
46282;SDS011;32017;43.700;11.820;2023-02-03T11:47:33;13.18;;;12.10;;
46282;SDS011;32017;43.700;11.820;2023-02-03T11:59:55;12.02;;;10.85;;
46282;SDS011;32017;43.700;11.820;2023-02-03T12:07:52;13.52;;;11.05;;
46282;SDS011;32017;43.700;11.820;2023-02-03T12:12:51;7.43;;;6.90;;
46282;SDS011;32017;43.700;11.820;2023-02-03T12:15:26;9.73;;;9.20;;
46282;SDS011;32017;43.700;11.820;2023-02-03T12:18:09;11.95;;;11.25;;
46282;SDS011;32017;43.700;11.820;2023-02-03T12:30:54;7.18;;;6.88;;
46282;SDS011;32017;43.700;11.820;2023-02-03T12:33:19;9.25;;;8.38;;
46282;SDS011;32017;43.700;11.820;2023-02-03T12:35:47;9.07;;;8.35;;
46282;SDS011;32017;43.700;11.820;2023-02-03T12:41:24;7.60;;;6.47;;
46282;SDS011;32017;43.700;11.820;2023-02-03T12:43:46;12.30;;;11.18;;
46282;SDS011;32017;43.700;11.820;2023-02-03T12:53:55;4.93;;;4.80;;
46282;SDS011;32017;43.700;11.820;2023-02-03T12:56:21;5.63;;;5.22;;
46282;SDS011;32017;43.700;11.820;2023-02-03T12:58:53;6.00;;;5.70;;
46282;SDS011;32017;43.700;11.820;2023-02-03T13:01:17;6.10;;;5.75;;
46282;SDS011;32017;43.700;11.820;2023-02-03T13:03:57;5.22;;;4.93;;
46282;SDS011;32017;43.700;11.820;2023-02-03T13:06:22;5.40;;;5.07;;
46282;SDS011;32017;43.700;11.820;2023-02-03T13:13:41;11.95;;;7.97;;
46282;SDS011;32017;43.700;11.820;2023-02-03T13:16:05;4.88;;;4.68;;
46282;SDS011;32017;43.700;11.820;2023-02-03T13:20:47;3.17;;;3.08;;
46282;SDS011;32017;43.700;11.820;2023-02-03T13:23:12;3.50;;;3.40;;
46282;SDS011;32017;43.700;11.820;2023-02-03T13:28:14;5.28;;;4.93;;
46282;SDS011;32017;43.700;11.820;2023-02-03T13:33:16;4.32;;;4.10;;
46282;SDS011;32017;43.700;11.820;2023-02-03T13:41:19;4.90;;;4.55;;
46282;SDS011;32017;43.700;11.820;2023-02-03T13:43:43;4.10;;;3.92;;
46282;SDS011;32017;43.700;11.820;2023-02-03T13:46:05;3.17;;;3.08;;
46282;SDS011;32017;43.700;11.820;2023-02-03T13:48:28;4.00;;;3.45;;
46282;SDS011;32017;43.700;11.820;2023-02-03T13:50:50;5.10;;;4.82;;
46282;SDS011;32017;43.700;11.820;2023-02-03T13:53:15;4.63;;;4.43;;
46282;SDS011;32017;43.700;11.820;2023-02-03T13:55:58;4.63;;;4.43;;
46282;SDS011;32017;43.700;11.820;2023-02-03T13:58:18;4.30;;;4.03;;
46282;SDS011;32017;43.700;11.820;2023-02-03T14:03:02;3.40;;;3.17;;
46282;SDS011;32017;43.700;11.820;2023-02-03T14:05:39;5.63;;;5.20;;
46282;SDS011;32017;43.700;11.820;2023-02-03T14:08:19;3.08;;;3.05;;
46282;SDS011;32017;43.700;11.820;2023-02-03T14:10:41;4.03;;;3.92;;
46282;SDS011;32017;43.700;11.820;2023-02-03T14:13:01;4.47;;;4.20;;
46282;SDS011;32017;43.700;11.820;2023-02-03T14:15:40;5.18;;;4.88;;
46282;SDS011;32017;43.700;11.820;2023-02-03T14:18:48;5.57;;;4.63;;
46282;SDS011;32017;43.700;11.820;2023-02-03T14:20:43;6.15;;;4.05;;
46282;SDS011;32017;43.700;11.820;2023-02-03T14:23:12;3.42;;;3.33;;
46282;SDS011;32017;43.700;11.820;2023-02-03T14:31:19;4.28;;;4.07;;
46282;SDS011;32017;43.700;11.820;2023-02-03T14:33:50;4.95;;;4.75;;
46282;SDS011;32017;43.700;11.820;2023-02-03T14:38:53;4.50;;;4.40;;
46282;SDS011;32017;43.700;11.820;2023-02-03T14:41:14;4.13;;;3.78;;
46282;SDS011;32017;43.700;11.820;2023-02-03T14:50:27;8.27;;;4.88;;
46282;SDS011;32017;43.700;11.820;2023-02-03T14:55:24;4.03;;;3.90;;
46282;SDS011;32017;43.700;11.820;2023-02-03T14:57:50;5.00;;;4.70;;
46282;SDS011;32017;43.700;11.820;2023-02-03T15:03:12;5.45;;;5.25;;
46282;SDS011;32017;43.700;11.820;2023-02-03T15:08:48;4.82;;;4.63;;
46282;SDS011;32017;43.700;11.820;2023-02-03T15:13:34;4.97;;;4.68;;
46282;SDS011;32017;43.700;11.820;2023-02-03T15:15:59;4.22;;;4.10;;
46282;SDS011;32017;43.700;11.820;2023-02-03T15:18:30;5.40;;;4.95;;
46282;SDS011;32017;43.700;11.820;2023-02-03T15:20:52;5.65;;;5.15;;
46282;SDS011;32017;43.700;11.820;2023-02-03T15:23:23;6.50;;;6.30;;
46282;SDS011;32017;43.700;11.820;2023-02-03T15:25:43;5.65;;;5.45;;
46282;SDS011;32017;43.700;11.820;2023-02-03T15:28:11;5.88;;;5.53;;
46282;SDS011;32017;43.700;11.820;2023-02-03T15:30:31;6.53;;;6.13;;
46282;SDS011;32017;43.700;11.820;2023-02-03T15:33:05;8.02;;;7.50;;
46282;SDS011;32017;43.700;11.820;2023-02-03T15:35:26;6.28;;;5.95;;
46282;SDS011;32017;43.700;11.820;2023-02-03T15:37:49;5.80;;;5.40;;
46282;SDS011;32017;43.700;11.820;2023-02-03T15:42:38;12.32;;;11.23;;
46282;SDS011;32017;43.700;11.820;2023-02-03T15:47:38;16.27;;;13.90;;
46282;SDS011;32017;43.700;11.820;2023-02-03T15:50:02;9.98;;;9.18;;
46282;SDS011;32017;43.700;11.820;2023-02-03T15:52:23;10.50;;;10.00;;
46282;SDS011;32017;43.700;11.820;2023-02-03T15:54:46;8.40;;;8.02;;
46282;SDS011;32017;43.700;11.820;2023-02-03T15:57:27;9.73;;;9.25;;
46282;SDS011;32017;43.700;11.820;2023-02-03T15:59:59;9.82;;;9.02;;
46282;SDS011;32017;43.700;11.820;2023-02-03T16:02:21;8.35;;;7.90;;
46282;SDS011;32017;43.700;11.820;2023-02-03T16:04:46;9.32;;;8.38;;
46282;SDS011;32017;43.700;11.820;2023-02-03T16:07:18;9.55;;;9.00;;
46282;SDS011;32017;43.700;11.820;2023-02-03T16:09:40;9.65;;;8.88;;
46282;SDS011;32017;43.700;11.820;2023-02-03T16:12:22;9.23;;;8.50;;
46282;SDS011;32017;43.700;11.820;2023-02-03T16:14:41;9.27;;;8.30;;